sensor_id;sensor_type;location;lat;lon;timestamp;P1;durP1;ratioP1;P2;durP2;ratioP2
47764;SDS011;33529;49.242;8.670;2024-03-29T00:01:24;3.08;;;1.20;;
47764;SDS011;33529;49.242;8.670;2024-03-29T00:03:50;2.20;;;1.10;;
47764;SDS011;33529;49.242;8.670;2024-03-29T00:06:18;3.20;;;1.30;;
47764;SDS011;33529;49.242;8.670;2024-03-29T00:08:44;2.05;;;1.10;;
47764;SDS011;33529;49.242;8.670;2024-03-29T00:11:10;2.78;;;1.27;;
47764;SDS011;33529;49.242;8.670;2024-03-29T00:13:36;2.85;;;1.15;;
47764;SDS011;33529;49.242;8.670;2024-03-29T00:16:02;3.55;;;1.10;;
47764;SDS011;33529;49.242;8.670;2024-03-29T00:18:29;2.90;;;1.20;;
47764;SDS011;33529;49.242;8.670;2024-03-29T00:20:55;3.13;;;1.23;;
47764;SDS011;33529;49.242;8.670;2024-03-29T00:23:21;2.33;;;1.00;;
47764;SDS011;33529;49.242;8.670;2024-03-29T00:25:47;3.97;;;1.52;;
47764;SDS011;33529;49.242;8.670;2024-03-29T00:28:13;1.70;;;0.88;;
47764;SDS011;33529;49.242;8.670;2024-03-29T00:30:39;2.55;;;1.17;;
47764;SDS011;33529;49.242;8.670;2024-03-29T00:33:05;1.92;;;1.02;;
47764;SDS011;33529;49.242;8.670;2024-03-29T00:35:31;2.53;;;1.25;;
47764;SDS011;33529;49.242;8.670;2024-03-29T00:37:57;2.45;;;1.30;;
47764;SDS011;33529;49.242;8.670;2024-03-29T00:40:24;3.78;;;1.15;;
47764;SDS011;33529;49.242;8.670;2024-03-29T00:42:49;3.10;;;1.00;;
47764;SDS011;33529;49.242;8.670;2024-03-29T00:45:15;2.45;;;1.20;;
47764;SDS011;33529;49.242;8.670;2024-03-29T00:47:42;2.15;;;0.98;;
47764;SDS011;33529;49.242;8.670;2024-03-29T00:50:08;2.88;;;1.08;;
47764;SDS011;33529;49.242;8.670;2024-03-29T00:52:35;2.20;;;1.10;;
47764;SDS011;33529;49.242;8.670;2024-03-29T00:55:01;2.88;;;1.15;;
47764;SDS011;33529;49.242;8.670;2024-03-29T00:57:28;4.25;;;1.30;;
47764;SDS011;33529;49.242;8.670;2024-03-29T00:59:54;2.70;;;1.05;;
47764;SDS011;33529;49.242;8.670;2024-03-29T01:02:22;2.05;;;1.17;;
47764;SDS011;33529;49.242;8.670;2024-03-29T01:04:49;2.20;;;1.00;;
47764;SDS011;33529;49.242;8.670;2024-03-29T01:07:15;3.28;;;1.20;;
47764;SDS011;33529;49.242;8.670;2024-03-29T01:09:42;2.10;;;0.98;;
47764;SDS011;33529;49.242;8.670;2024-03-29T01:12:09;2.03;;;1.13;;
47764;SDS011;33529;49.242;8.670;2024-03-29T01:14:35;1.98;;;1.00;;
47764;SDS011;33529;49.242;8.670;2024-03-29T01:17:01;3.22;;;1.23;;
47764;SDS011;33529;49.242;8.670;2024-03-29T01:19:27;2.25;;;1.10;;
47764;SDS011;33529;49.242;8.670;2024-03-29T01:21:53;2.40;;;1.05;;
47764;SDS011;33529;49.242;8.670;2024-03-29T01:24:19;2.30;;;1.27;;
47764;SDS011;33529;49.242;8.670;2024-03-29T01:26:45;2.15;;;0.82;;
47764;SDS011;33529;49.242;8.670;2024-03-29T01:29:11;1.58;;;1.00;;
47764;SDS011;33529;49.242;8.670;2024-03-29T01:31:37;4.50;;;1.27;;
47764;SDS011;33529;49.242;8.670;2024-03-29T01:34:03;2.95;;;0.90;;
47764;SDS011;33529;49.242;8.670;2024-03-29T01:36:29;2.25;;;1.05;;
47764;SDS011;33529;49.242;8.670;2024-03-29T01:38:55;5.35;;;1.30;;
47764;SDS011;33529;49.242;8.670;2024-03-29T01:41:24;1.85;;;0.80;;
47764;SDS011;33529;49.242;8.670;2024-03-29T01:43:52;2.25;;;1.10;;
47764;SDS011;33529;49.242;8.670;2024-03-29T01:46:22;2.65;;;1.15;;
47764;SDS011;33529;49.242;8.670;2024-03-29T01:48:52;2.03;;;0.70;;
47764;SDS011;33529;49.242;8.670;2024-03-29T01:51:22;2.25;;;1.00;;
47764;SDS011;33529;49.242;8.670;2024-03-29T01:53:49;1.80;;;0.90;;
47764;SDS011;33529;49.242;8.670;2024-03-29T01:56:17;2.72;;;0.98;;
47764;SDS011;33529;49.242;8.670;2024-03-29T01:58:46;2.10;;;1.20;;
47764;SDS011;33529;49.242;8.670;2024-03-29T02:01:16;2.10;;;0.80;;
47764;SDS011;33529;49.242;8.670;2024-03-29T02:03:43;1.60;;;0.80;;
47764;SDS011;33529;49.242;8.670;2024-03-29T02:06:09;2.05;;;1.33;;
47764;SDS011;33529;49.242;8.670;2024-03-29T02:08:35;1.98;;;1.00;;
47764;SDS011;33529;49.242;8.670;2024-03-29T02:11:02;2.92;;;1.10;;
47764;SDS011;33529;49.242;8.670;2024-03-29T02:13:29;1.55;;;0.98;;
47764;SDS011;33529;49.242;8.670;2024-03-29T02:15:55;1.90;;;0.90;;
47764;SDS011;33529;49.242;8.670;2024-03-29T02:18:21;2.92;;;1.20;;
47764;SDS011;33529;49.242;8.670;2024-03-29T02:20:46;2.92;;;0.95;;
47764;SDS011;33529;49.242;8.670;2024-03-29T02:23:13;1.95;;;1.10;;
47764;SDS011;33529;49.242;8.670;2024-03-29T02:25:43;2.00;;;0.90;;
47764;SDS011;33529;49.242;8.670;2024-03-29T02:28:09;1.25;;;0.80;;
47764;SDS011;33529;49.242;8.670;2024-03-29T02:30:35;1.77;;;0.90;;
47764;SDS011;33529;49.242;8.670;2024-03-29T02:33:01;1.80;;;0.90;;
47764;SDS011;33529;49.242;8.670;2024-03-29T02:35:28;5.38;;;1.00;;
47764;SDS011;33529;49.242;8.670;2024-03-29T02:37:54;2.08;;;0.80;;
47764;SDS011;33529;49.242;8.670;2024-03-29T02:40:20;1.45;;;0.70;;
47764;SDS011;33529;49.242;8.670;2024-03-29T02:42:49;1.63;;;1.00;;
47764;SDS011;33529;49.242;8.670;2024-03-29T02:45:16;2.03;;;0.80;;
47764;SDS011;33529;49.242;8.670;2024-03-29T02:47:42;3.15;;;0.80;;
47764;SDS011;33529;49.242;8.670;2024-03-29T02:50:12;1.63;;;0.70;;
47764;SDS011;33529;49.242;8.670;2024-03-29T02:52:39;3.10;;;1.20;;
47764;SDS011;33529;49.242;8.670;2024-03-29T02:55:05;2.50;;;0.90;;
47764;SDS011;33529;49.242;8.670;2024-03-29T02:57:31;1.92;;;0.80;;
47764;SDS011;33529;49.242;8.670;2024-03-29T02:59:57;3.13;;;1.00;;
47764;SDS011;33529;49.242;8.670;2024-03-29T03:02:23;2.33;;;0.82;;
47764;SDS011;33529;49.242;8.670;2024-03-29T03:04:49;2.30;;;1.00;;
47764;SDS011;33529;49.242;8.670;2024-03-29T03:07:15;1.92;;;0.93;;
47764;SDS011;33529;49.242;8.670;2024-03-29T03:09:59;1.35;;;0.70;;
47764;SDS011;33529;49.242;8.670;2024-03-29T03:12:44;2.03;;;0.70;;
47764;SDS011;33529;49.242;8.670;2024-03-29T03:15:09;1.35;;;0.80;;
47764;SDS011;33529;49.242;8.670;2024-03-29T03:17:35;2.15;;;0.98;;
47764;SDS011;33529;49.242;8.670;2024-03-29T03:20:01;1.50;;;0.70;;
47764;SDS011;33529;49.242;8.670;2024-03-29T03:22:30;2.05;;;0.85;;
47764;SDS011;33529;49.242;8.670;2024-03-29T03:24:56;1.98;;;0.82;;
47764;SDS011;33529;49.242;8.670;2024-03-29T03:27:22;1.88;;;0.70;;
47764;SDS011;33529;49.242;8.670;2024-03-29T03:29:49;2.17;;;1.20;;
47764;SDS011;33529;49.242;8.670;2024-03-29T03:32:14;2.05;;;0.75;;
47764;SDS011;33529;49.242;8.670;2024-03-29T03:34:40;2.08;;;1.02;;
47764;SDS011;33529;49.242;8.670;2024-03-29T03:37:07;1.20;;;0.80;;
47764;SDS011;33529;49.242;8.670;2024-03-29T03:39:32;2.63;;;0.90;;
47764;SDS011;33529;49.242;8.670;2024-03-29T03:41:59;2.15;;;0.88;;
47764;SDS011;33529;49.242;8.670;2024-03-29T03:44:25;2.80;;;0.77;;
47764;SDS011;33529;49.242;8.670;2024-03-29T03:46:51;2.13;;;1.13;;
47764;SDS011;33529;49.242;8.670;2024-03-29T03:49:17;1.50;;;0.68;;
47764;SDS011;33529;49.242;8.670;2024-03-29T03:51:43;2.22;;;0.90;;
47764;SDS011;33529;49.242;8.670;2024-03-29T03:54:09;1.48;;;0.73;;
47764;SDS011;33529;49.242;8.670;2024-03-29T03:56:35;1.70;;;0.80;;
47764;SDS011;33529;49.242;8.670;2024-03-29T03:59:01;2.15;;;0.95;;
47764;SDS011;33529;49.242;8.670;2024-03-29T04:01:27;1.65;;;0.85;;
47764;SDS011;33529;49.242;8.670;2024-03-29T04:03:53;2.47;;;0.80;;
47764;SDS011;33529;49.242;8.670;2024-03-29T04:06:19;2.30;;;0.90;;
47764;SDS011;33529;49.242;8.670;2024-03-29T04:08:45;2.33;;;0.70;;
47764;SDS011;33529;49.242;8.670;2024-03-29T04:11:11;3.13;;;0.90;;
47764;SDS011;33529;49.242;8.670;2024-03-29T04:13:37;1.73;;;1.00;;
47764;SDS011;33529;49.242;8.670;2024-03-29T04:16:04;2.03;;;0.90;;
47764;SDS011;33529;49.242;8.670;2024-03-29T04:18:31;2.03;;;0.90;;
47764;SDS011;33529;49.242;8.670;2024-03-29T04:21:01;2.95;;;0.70;;
47764;SDS011;33529;49.242;8.670;2024-03-29T04:23:27;2.50;;;0.82;;
47764;SDS011;33529;49.242;8.670;2024-03-29T04:25:54;1.75;;;0.73;;
47764;SDS011;33529;49.242;8.670;2024-03-29T04:28:25;1.98;;;0.90;;
47764;SDS011;33529;49.242;8.670;2024-03-29T04:33:18;2.00;;;1.13;;
47764;SDS011;33529;49.242;8.670;2024-03-29T04:35:54;1.75;;;0.85;;
47764;SDS011;33529;49.242;8.670;2024-03-29T04:38:24;1.40;;;0.77;;
47764;SDS011;33529;49.242;8.670;2024-03-29T04:40:50;2.10;;;0.70;;
47764;SDS011;33529;49.242;8.670;2024-03-29T04:43:17;2.08;;;0.77;;
47764;SDS011;33529;49.242;8.670;2024-03-29T04:45:44;2.00;;;1.15;;
47764;SDS011;33529;49.242;8.670;2024-03-29T04:48:10;1.83;;;0.95;;
47764;SDS011;33529;49.242;8.670;2024-03-29T04:50:37;1.13;;;0.70;;
47764;SDS011;33529;49.242;8.670;2024-03-29T04:53:03;4.00;;;1.13;;
47764;SDS011;33529;49.242;8.670;2024-03-29T04:55:29;1.80;;;0.93;;
47764;SDS011;33529;49.242;8.670;2024-03-29T04:57:55;4.30;;;1.15;;
47764;SDS011;33529;49.242;8.670;2024-03-29T05:00:22;2.55;;;0.98;;
47764;SDS011;33529;49.242;8.670;2024-03-29T05:02:47;2.95;;;1.05;;
47764;SDS011;33529;49.242;8.670;2024-03-29T05:05:13;4.05;;;0.77;;
47764;SDS011;33529;49.242;8.670;2024-03-29T05:07:39;1.10;;;0.68;;
47764;SDS011;33529;49.242;8.670;2024-03-29T05:10:05;2.63;;;0.80;;
47764;SDS011;33529;49.242;8.670;2024-03-29T05:12:33;2.58;;;0.70;;
47764;SDS011;33529;49.242;8.670;2024-03-29T05:14:59;1.63;;;0.80;;
47764;SDS011;33529;49.242;8.670;2024-03-29T05:17:24;2.08;;;0.90;;
47764;SDS011;33529;49.242;8.670;2024-03-29T05:19:52;1.55;;;0.77;;
47764;SDS011;33529;49.242;8.670;2024-03-29T05:22:19;2.45;;;0.90;;
47764;SDS011;33529;49.242;8.670;2024-03-29T05:24:45;3.40;;;1.05;;
47764;SDS011;33529;49.242;8.670;2024-03-29T05:27:11;2.53;;;0.85;;
47764;SDS011;33529;49.242;8.670;2024-03-29T05:29:38;3.22;;;0.70;;
47764;SDS011;33529;49.242;8.670;2024-03-29T05:32:04;2.17;;;1.00;;
47764;SDS011;33529;49.242;8.670;2024-03-29T05:34:30;1.70;;;0.70;;
47764;SDS011;33529;49.242;8.670;2024-03-29T05:36:56;1.55;;;0.82;;
47764;SDS011;33529;49.242;8.670;2024-03-29T05:39:22;2.00;;;0.77;;
47764;SDS011;33529;49.242;8.670;2024-03-29T05:41:48;2.58;;;1.05;;
47764;SDS011;33529;49.242;8.670;2024-03-29T05:44:15;2.15;;;0.90;;
47764;SDS011;33529;49.242;8.670;2024-03-29T05:46:40;2.17;;;0.70;;
47764;SDS011;33529;49.242;8.670;2024-03-29T05:49:06;0.85;;;0.70;;
47764;SDS011;33529;49.242;8.670;2024-03-29T05:51:32;2.90;;;0.70;;
47764;SDS011;33529;49.242;8.670;2024-03-29T05:54:01;0.98;;;0.50;;
47764;SDS011;33529;49.242;8.670;2024-03-29T05:56:30;2.38;;;0.75;;
47764;SDS011;33529;49.242;8.670;2024-03-29T05:58:56;0.90;;;0.50;;
47764;SDS011;33529;49.242;8.670;2024-03-29T06:01:22;2.40;;;0.80;;
47764;SDS011;33529;49.242;8.670;2024-03-29T06:03:51;1.83;;;0.60;;
47764;SDS011;33529;49.242;8.670;2024-03-29T06:06:19;1.63;;;0.70;;
47764;SDS011;33529;49.242;8.670;2024-03-29T06:08:49;1.50;;;0.60;;
47764;SDS011;33529;49.242;8.670;2024-03-29T06:11:15;1.27;;;0.70;;
47764;SDS011;33529;49.242;8.670;2024-03-29T06:13:41;2.20;;;0.68;;
47764;SDS011;33529;49.242;8.670;2024-03-29T06:16:19;0.70;;;0.50;;
47764;SDS011;33529;49.242;8.670;2024-03-29T06:19:09;2.15;;;0.90;;
47764;SDS011;33529;49.242;8.670;2024-03-29T06:21:35;1.33;;;0.73;;
47764;SDS011;33529;49.242;8.670;2024-03-29T06:24:05;0.73;;;0.40;;
47764;SDS011;33529;49.242;8.670;2024-03-29T06:26:32;0.95;;;0.50;;
47764;SDS011;33529;49.242;8.670;2024-03-29T06:28:58;0.98;;;0.50;;
47764;SDS011;33529;49.242;8.670;2024-03-29T06:31:25;2.28;;;0.75;;
47764;SDS011;33529;49.242;8.670;2024-03-29T06:33:51;1.05;;;0.57;;
47764;SDS011;33529;49.242;8.670;2024-03-29T06:36:17;1.75;;;0.77;;
47764;SDS011;33529;49.242;8.670;2024-03-29T06:38:42;1.75;;;0.68;;
47764;SDS011;33529;49.242;8.670;2024-03-29T06:41:08;1.75;;;0.68;;
47764;SDS011;33529;49.242;8.670;2024-03-29T06:43:34;0.95;;;0.57;;
47764;SDS011;33529;49.242;8.670;2024-03-29T06:46:00;1.50;;;0.80;;
47764;SDS011;33529;49.242;8.670;2024-03-29T06:48:28;1.25;;;0.60;;
47764;SDS011;33529;49.242;8.670;2024-03-29T06:50:57;1.17;;;0.52;;
47764;SDS011;33529;49.242;8.670;2024-03-29T06:53:24;2.25;;;0.70;;
47764;SDS011;33529;49.242;8.670;2024-03-29T06:55:50;1.63;;;0.70;;
47764;SDS011;33529;49.242;8.670;2024-03-29T06:58:16;2.72;;;0.88;;
47764;SDS011;33529;49.242;8.670;2024-03-29T07:00:43;1.70;;;0.80;;
47764;SDS011;33529;49.242;8.670;2024-03-29T07:03:11;0.98;;;0.60;;
47764;SDS011;33529;49.242;8.670;2024-03-29T07:05:37;1.38;;;0.63;;
47764;SDS011;33529;49.242;8.670;2024-03-29T07:08:03;0.93;;;0.60;;
47764;SDS011;33529;49.242;8.670;2024-03-29T07:10:30;2.45;;;0.90;;
47764;SDS011;33529;49.242;8.670;2024-03-29T07:12:56;1.33;;;0.45;;
47764;SDS011;33529;49.242;8.670;2024-03-29T07:15:22;2.45;;;1.00;;
47764;SDS011;33529;49.242;8.670;2024-03-29T07:17:48;1.23;;;0.60;;
47764;SDS011;33529;49.242;8.670;2024-03-29T07:20:16;1.85;;;0.50;;
47764;SDS011;33529;49.242;8.670;2024-03-29T07:22:42;1.73;;;0.70;;
47764;SDS011;33529;49.242;8.670;2024-03-29T07:25:08;0.82;;;0.50;;
47764;SDS011;33529;49.242;8.670;2024-03-29T07:27:34;1.52;;;0.60;;
47764;SDS011;33529;49.242;8.670;2024-03-29T07:30:01;1.27;;;0.65;;
47764;SDS011;33529;49.242;8.670;2024-03-29T07:32:29;1.35;;;0.60;;
47764;SDS011;33529;49.242;8.670;2024-03-29T07:34:56;3.03;;;0.80;;
47764;SDS011;33529;49.242;8.670;2024-03-29T07:37:23;1.00;;;0.60;;
47764;SDS011;33529;49.242;8.670;2024-03-29T07:39:49;1.42;;;0.70;;
47764;SDS011;33529;49.242;8.670;2024-03-29T07:42:16;3.33;;;0.75;;
47764;SDS011;33529;49.242;8.670;2024-03-29T07:44:42;1.00;;;0.63;;
47764;SDS011;33529;49.242;8.670;2024-03-29T07:47:08;3.58;;;0.68;;
47764;SDS011;33529;49.242;8.670;2024-03-29T07:49:34;1.50;;;0.90;;
47764;SDS011;33529;49.242;8.670;2024-03-29T07:52:00;2.80;;;0.80;;
47764;SDS011;33529;49.242;8.670;2024-03-29T07:54:31;2.25;;;0.90;;
47764;SDS011;33529;49.242;8.670;2024-03-29T07:56:57;2.05;;;0.90;;
47764;SDS011;33529;49.242;8.670;2024-03-29T07:59:23;4.10;;;0.98;;
47764;SDS011;33529;49.242;8.670;2024-03-29T08:01:49;1.67;;;0.70;;
47764;SDS011;33529;49.242;8.670;2024-03-29T08:04:17;1.58;;;0.60;;
47764;SDS011;33529;49.242;8.670;2024-03-29T08:06:43;2.42;;;0.80;;
47764;SDS011;33529;49.242;8.670;2024-03-29T08:09:09;1.88;;;0.80;;
47764;SDS011;33529;49.242;8.670;2024-03-29T08:11:35;2.08;;;0.70;;
47764;SDS011;33529;49.242;8.670;2024-03-29T08:14:01;1.52;;;0.77;;
47764;SDS011;33529;49.242;8.670;2024-03-29T08:16:27;1.63;;;0.80;;
47764;SDS011;33529;49.242;8.670;2024-03-29T08:18:53;3.17;;;1.10;;
47764;SDS011;33529;49.242;8.670;2024-03-29T08:21:19;2.33;;;1.05;;
47764;SDS011;33529;49.242;8.670;2024-03-29T08:23:45;2.45;;;1.00;;
47764;SDS011;33529;49.242;8.670;2024-03-29T08:26:12;2.08;;;1.02;;
47764;SDS011;33529;49.242;8.670;2024-03-29T08:28:38;2.90;;;0.90;;
47764;SDS011;33529;49.242;8.670;2024-03-29T08:31:04;1.90;;;1.08;;
47764;SDS011;33529;49.242;8.670;2024-03-29T08:33:31;2.72;;;1.17;;
47764;SDS011;33529;49.242;8.670;2024-03-29T08:35:57;3.22;;;1.10;;
47764;SDS011;33529;49.242;8.670;2024-03-29T08:38:24;3.22;;;1.27;;
47764;SDS011;33529;49.242;8.670;2024-03-29T08:40:50;2.90;;;1.20;;
47764;SDS011;33529;49.242;8.670;2024-03-29T08:43:16;3.70;;;1.40;;
47764;SDS011;33529;49.242;8.670;2024-03-29T08:45:43;2.70;;;1.20;;
47764;SDS011;33529;49.242;8.670;2024-03-29T08:48:11;2.67;;;1.27;;
47764;SDS011;33529;49.242;8.670;2024-03-29T08:50:37;2.45;;;1.08;;
47764;SDS011;33529;49.242;8.670;2024-03-29T08:53:03;2.83;;;1.08;;
47764;SDS011;33529;49.242;8.670;2024-03-29T08:55:30;1.90;;;1.15;;
47764;SDS011;33529;49.242;8.670;2024-03-29T08:57:59;2.05;;;1.13;;
47764;SDS011;33529;49.242;8.670;2024-03-29T09:00:26;2.08;;;1.10;;
47764;SDS011;33529;49.242;8.670;2024-03-29T09:02:53;2.40;;;1.00;;
47764;SDS011;33529;49.242;8.670;2024-03-29T09:05:19;2.38;;;1.23;;
47764;SDS011;33529;49.242;8.670;2024-03-29T09:07:45;4.18;;;1.17;;
47764;SDS011;33529;49.242;8.670;2024-03-29T09:10:11;2.65;;;1.30;;
47764;SDS011;33529;49.242;8.670;2024-03-29T09:12:38;3.40;;;1.13;;
47764;SDS011;33529;49.242;8.670;2024-03-29T09:15:05;3.05;;;1.27;;
47764;SDS011;33529;49.242;8.670;2024-03-29T09:17:34;4.15;;;1.45;;
47764;SDS011;33529;49.242;8.670;2024-03-29T09:20:00;3.08;;;1.30;;
47764;SDS011;33529;49.242;8.670;2024-03-29T09:22:26;2.80;;;1.40;;
47764;SDS011;33529;49.242;8.670;2024-03-29T09:24:52;2.85;;;1.50;;
47764;SDS011;33529;49.242;8.670;2024-03-29T09:27:18;4.47;;;1.33;;
47764;SDS011;33529;49.242;8.670;2024-03-29T09:29:47;2.30;;;1.10;;
47764;SDS011;33529;49.242;8.670;2024-03-29T09:32:14;2.88;;;1.30;;
47764;SDS011;33529;49.242;8.670;2024-03-29T09:34:43;3.33;;;1.40;;
47764;SDS011;33529;49.242;8.670;2024-03-29T09:37:09;1.85;;;1.10;;
47764;SDS011;33529;49.242;8.670;2024-03-29T09:39:36;2.25;;;1.10;;
47764;SDS011;33529;49.242;8.670;2024-03-29T09:42:06;3.67;;;1.10;;
47764;SDS011;33529;49.242;8.670;2024-03-29T09:44:33;2.13;;;1.20;;
47764;SDS011;33529;49.242;8.670;2024-03-29T09:47:04;3.28;;;1.30;;
47764;SDS011;33529;49.242;8.670;2024-03-29T09:49:31;4.35;;;1.55;;
47764;SDS011;33529;49.242;8.670;2024-03-29T09:52:01;2.67;;;1.13;;
47764;SDS011;33529;49.242;8.670;2024-03-29T09:54:28;4.63;;;1.33;;
47764;SDS011;33529;49.242;8.670;2024-03-29T09:56:55;2.47;;;1.27;;
47764;SDS011;33529;49.242;8.670;2024-03-29T09:59:22;2.25;;;0.93;;
47764;SDS011;33529;49.242;8.670;2024-03-29T10:01:50;2.75;;;1.23;;
47764;SDS011;33529;49.242;8.670;2024-03-29T10:04:17;2.53;;;1.52;;
47764;SDS011;33529;49.242;8.670;2024-03-29T10:06:46;2.38;;;1.30;;
47764;SDS011;33529;49.242;8.670;2024-03-29T10:09:18;5.63;;;1.38;;
47764;SDS011;33529;49.242;8.670;2024-03-29T10:11:44;2.88;;;1.00;;
47764;SDS011;33529;49.242;8.670;2024-03-29T10:14:12;1.98;;;1.13;;
47764;SDS011;33529;49.242;8.670;2024-03-29T10:16:38;2.72;;;1.30;;
47764;SDS011;33529;49.242;8.670;2024-03-29T10:19:04;1.98;;;1.10;;
47764;SDS011;33529;49.242;8.670;2024-03-29T10:21:34;3.15;;;1.25;;
47764;SDS011;33529;49.242;8.670;2024-03-29T10:24:14;2.35;;;1.30;;
47764;SDS011;33529;49.242;8.670;2024-03-29T10:26:42;4.28;;;1.42;;
47764;SDS011;33529;49.242;8.670;2024-03-29T10:29:09;2.58;;;1.50;;
47764;SDS011;33529;49.242;8.670;2024-03-29T10:31:35;4.20;;;1.88;;
47764;SDS011;33529;49.242;8.670;2024-03-29T10:34:02;2.45;;;1.55;;
47764;SDS011;33529;49.242;8.670;2024-03-29T10:36:30;2.83;;;1.65;;
47764;SDS011;33529;49.242;8.670;2024-03-29T10:39:08;2.83;;;1.70;;
47764;SDS011;33529;49.242;8.670;2024-03-29T10:41:41;6.43;;;1.73;;
47764;SDS011;33529;49.242;8.670;2024-03-29T10:44:09;3.92;;;1.73;;
47764;SDS011;33529;49.242;8.670;2024-03-29T10:46:40;2.22;;;1.30;;
47764;SDS011;33529;49.242;8.670;2024-03-29T10:49:07;2.25;;;1.27;;
47764;SDS011;33529;49.242;8.670;2024-03-29T10:51:38;4.82;;;1.52;;
47764;SDS011;33529;49.242;8.670;2024-03-29T10:54:08;3.92;;;1.98;;
47764;SDS011;33529;49.242;8.670;2024-03-29T10:56:35;2.58;;;1.27;;
47764;SDS011;33529;49.242;8.670;2024-03-29T10:59:06;5.18;;;1.95;;
47764;SDS011;33529;49.242;8.670;2024-03-29T11:01:39;3.17;;;1.70;;
47764;SDS011;33529;49.242;8.670;2024-03-29T11:04:17;3.63;;;2.63;;
47764;SDS011;33529;49.242;8.670;2024-03-29T11:06:48;6.75;;;2.80;;
47764;SDS011;33529;49.242;8.670;2024-03-29T11:09:17;5.25;;;3.60;;
47764;SDS011;33529;49.242;8.670;2024-03-29T11:11:46;3.85;;;2.58;;
47764;SDS011;33529;49.242;8.670;2024-03-29T11:14:18;3.60;;;2.33;;
47764;SDS011;33529;49.242;8.670;2024-03-29T11:16:49;4.07;;;2.05;;
47764;SDS011;33529;49.242;8.670;2024-03-29T11:19:20;2.97;;;1.90;;
47764;SDS011;33529;49.242;8.670;2024-03-29T11:21:46;3.50;;;1.48;;
47764;SDS011;33529;49.242;8.670;2024-03-29T11:24:16;2.75;;;1.63;;
47764;SDS011;33529;49.242;8.670;2024-03-29T11:26:45;2.80;;;1.67;;
47764;SDS011;33529;49.242;8.670;2024-03-29T11:29:18;2.50;;;1.38;;
47764;SDS011;33529;49.242;8.670;2024-03-29T11:31:46;3.28;;;1.45;;
47764;SDS011;33529;49.242;8.670;2024-03-29T11:34:14;2.38;;;1.55;;
47764;SDS011;33529;49.242;8.670;2024-03-29T11:36:44;3.22;;;1.33;;
47764;SDS011;33529;49.242;8.670;2024-03-29T11:39:19;2.33;;;1.17;;
47764;SDS011;33529;49.242;8.670;2024-03-29T11:41:47;3.15;;;2.10;;
47764;SDS011;33529;49.242;8.670;2024-03-29T11:44:13;3.17;;;1.08;;
47764;SDS011;33529;49.242;8.670;2024-03-29T11:46:39;4.07;;;1.33;;
47764;SDS011;33529;49.242;8.670;2024-03-29T11:49:06;2.88;;;1.00;;
47764;SDS011;33529;49.242;8.670;2024-03-29T11:51:32;3.42;;;1.30;;
47764;SDS011;33529;49.242;8.670;2024-03-29T11:54:02;2.72;;;1.20;;
47764;SDS011;33529;49.242;8.670;2024-03-29T11:56:28;2.40;;;1.40;;
47764;SDS011;33529;49.242;8.670;2024-03-29T11:58:54;2.63;;;1.17;;
47764;SDS011;33529;49.242;8.670;2024-03-29T12:01:25;2.30;;;1.23;;
47764;SDS011;33529;49.242;8.670;2024-03-29T12:03:52;3.53;;;2.10;;
47764;SDS011;33529;49.242;8.670;2024-03-29T12:06:19;5.68;;;1.92;;
47764;SDS011;33529;49.242;8.670;2024-03-29T12:08:45;3.28;;;2.28;;
47764;SDS011;33529;49.242;8.670;2024-03-29T12:11:11;4.63;;;2.53;;
47764;SDS011;33529;49.242;8.670;2024-03-29T12:13:37;4.40;;;2.70;;
47764;SDS011;33529;49.242;8.670;2024-03-29T12:16:04;3.53;;;2.00;;
47764;SDS011;33529;49.242;8.670;2024-03-29T12:18:30;4.28;;;2.40;;
47764;SDS011;33529;49.242;8.670;2024-03-29T12:20:57;4.07;;;2.53;;
47764;SDS011;33529;49.242;8.670;2024-03-29T12:23:23;3.63;;;2.58;;
47764;SDS011;33529;49.242;8.670;2024-03-29T12:25:50;3.83;;;2.80;;
47764;SDS011;33529;49.242;8.670;2024-03-29T12:28:19;7.05;;;2.92;;
47764;SDS011;33529;49.242;8.670;2024-03-29T12:30:46;5.25;;;2.60;;
47764;SDS011;33529;49.242;8.670;2024-03-29T12:33:19;6.15;;;2.65;;
47764;SDS011;33529;49.242;8.670;2024-03-29T12:35:46;4.55;;;2.88;;
47764;SDS011;33529;49.242;8.670;2024-03-29T12:38:18;3.38;;;2.75;;
47764;SDS011;33529;49.242;8.670;2024-03-29T12:40:47;5.20;;;2.65;;
47764;SDS011;33529;49.242;8.670;2024-03-29T12:43:15;5.47;;;3.40;;
47764;SDS011;33529;49.242;8.670;2024-03-29T12:45:48;9.18;;;7.10;;
47764;SDS011;33529;49.242;8.670;2024-03-29T12:48:24;14.25;;;8.88;;
47764;SDS011;33529;49.242;8.670;2024-03-29T12:50:51;5.50;;;3.15;;
47764;SDS011;33529;49.242;8.670;2024-03-29T12:53:19;5.07;;;3.10;;
47764;SDS011;33529;49.242;8.670;2024-03-29T12:55:45;5.22;;;2.90;;
47764;SDS011;33529;49.242;8.670;2024-03-29T12:58:12;3.88;;;2.53;;
47764;SDS011;33529;49.242;8.670;2024-03-29T13:00:44;5.40;;;4.00;;
47764;SDS011;33529;49.242;8.670;2024-03-29T13:03:10;6.43;;;4.53;;
47764;SDS011;33529;49.242;8.670;2024-03-29T13:05:37;12.48;;;10.20;;
47764;SDS011;33529;49.242;8.670;2024-03-29T13:08:08;12.85;;;8.57;;
47764;SDS011;33529;49.242;8.670;2024-03-29T13:10:36;8.05;;;6.15;;
47764;SDS011;33529;49.242;8.670;2024-03-29T13:13:05;7.50;;;4.57;;
47764;SDS011;33529;49.242;8.670;2024-03-29T13:15:33;6.60;;;4.95;;
47764;SDS011;33529;49.242;8.670;2024-03-29T13:18:01;6.05;;;4.95;;
47764;SDS011;33529;49.242;8.670;2024-03-29T13:20:29;5.78;;;4.88;;
47764;SDS011;33529;49.242;8.670;2024-03-29T13:22:55;7.95;;;5.65;;
47764;SDS011;33529;49.242;8.670;2024-03-29T13:25:23;7.63;;;5.50;;
47764;SDS011;33529;49.242;8.670;2024-03-29T13:27:50;8.02;;;5.32;;
47764;SDS011;33529;49.242;8.670;2024-03-29T13:30:26;7.82;;;6.32;;
47764;SDS011;33529;49.242;8.670;2024-03-29T13:32:53;7.80;;;6.15;;
47764;SDS011;33529;49.242;8.670;2024-03-29T13:35:19;7.10;;;5.60;;
47764;SDS011;33529;49.242;8.670;2024-03-29T13:37:49;13.07;;;7.85;;
47764;SDS011;33529;49.242;8.670;2024-03-29T13:40:17;11.32;;;5.75;;
47764;SDS011;33529;49.242;8.670;2024-03-29T13:42:44;7.50;;;4.32;;
47764;SDS011;33529;49.242;8.670;2024-03-29T13:45:10;5.75;;;4.75;;
47764;SDS011;33529;49.242;8.670;2024-03-29T13:47:36;6.05;;;4.70;;
47764;SDS011;33529;49.242;8.670;2024-03-29T13:50:04;5.45;;;4.68;;
47764;SDS011;33529;49.242;8.670;2024-03-29T13:52:30;6.40;;;5.28;;
47764;SDS011;33529;49.242;8.670;2024-03-29T13:54:56;7.18;;;6.47;;
47764;SDS011;33529;49.242;8.670;2024-03-29T13:57:22;7.15;;;6.40;;
47764;SDS011;33529;49.242;8.670;2024-03-29T13:59:48;6.70;;;5.22;;
47764;SDS011;33529;49.242;8.670;2024-03-29T14:02:16;7.63;;;5.97;;
47764;SDS011;33529;49.242;8.670;2024-03-29T14:04:43;7.50;;;6.43;;
47764;SDS011;33529;49.242;8.670;2024-03-29T14:07:10;5.93;;;4.88;;
47764;SDS011;33529;49.242;8.670;2024-03-29T14:09:39;6.78;;;4.95;;
47764;SDS011;33529;49.242;8.670;2024-03-29T14:12:06;5.70;;;4.47;;
47764;SDS011;33529;49.242;8.670;2024-03-29T14:14:33;6.38;;;5.15;;
47764;SDS011;33529;49.242;8.670;2024-03-29T14:16:59;6.13;;;4.63;;
47764;SDS011;33529;49.242;8.670;2024-03-29T14:19:33;6.17;;;4.33;;
47764;SDS011;33529;49.242;8.670;2024-03-29T14:21:59;7.00;;;4.57;;
47764;SDS011;33529;49.242;8.670;2024-03-29T14:24:25;6.00;;;4.13;;
47764;SDS011;33529;49.242;8.670;2024-03-29T14:26:53;6.25;;;4.68;;
47764;SDS011;33529;49.242;8.670;2024-03-29T14:29:20;6.32;;;4.93;;
47764;SDS011;33529;49.242;8.670;2024-03-29T14:31:49;7.93;;;5.35;;
47764;SDS011;33529;49.242;8.670;2024-03-29T14:34:16;6.72;;;5.43;;
47764;SDS011;33529;49.242;8.670;2024-03-29T14:36:42;8.95;;;4.68;;
47764;SDS011;33529;49.242;8.670;2024-03-29T14:39:09;4.28;;;3.72;;
47764;SDS011;33529;49.242;8.670;2024-03-29T14:41:39;6.22;;;4.10;;
47764;SDS011;33529;49.242;8.670;2024-03-29T14:44:06;5.00;;;3.50;;
47764;SDS011;33529;49.242;8.670;2024-03-29T14:46:32;5.45;;;4.65;;
47764;SDS011;33529;49.242;8.670;2024-03-29T14:48:59;6.53;;;4.93;;
47764;SDS011;33529;49.242;8.670;2024-03-29T14:51:26;6.10;;;4.78;;